KSFB/SFB METAR and TAF weather

Enter ICAO airport designator
Station Type Date Time Source
KSFB METAR 2020/01/29 12:53 UTC NOAA

KSFB 291253Z 01005KT 9SM CLR 11/07 A2999 RMK AO2 SLP156 T01060067


Station Type Date Time Source
KSFB Decoded METAR 2020/01/29 12:53 UTC NOAA

ORLANDO SANFORD AIRPORT, FL, United States (KSFB) 28-47N 081-15W
Jan 29, 2020 - 07:53 AM EST / 2020.01.29 1253 UTC
Wind: from the N (010 degrees) at 6 MPH (5 KT):0
Visibility: 9 mile(s):0
Sky conditions: clear
Temperature: 51.1 F (10.6 C)
Dew Point: 44.1 F (6.7 C)
Relative Humidity: 76%
Pressure (altimeter): 29.99 in. Hg (1015 hPa)
ob: KSFB 291253Z 01005KT 9SM CLR 11/07 A2999 RMK AO2 SLP156 T01060067
cycle: 13

Station Type Date Time Source
KSFB TAF 2020/01/29 12:22 UTC NOAA

TAF KSFB 291120Z 2912/3012 02005KT P6SM FEW045 FEW250
FM291500 08007KT P6SM SCT035 SCT050
FM300000 07005KT P6SM VCSH SCT030 BKN050 BKN150
FM300500 VRB04KT P6SM VCSH SCT015 BKN030

Example: see airport list